createdAt,value
2022-08-12T00:00:47.497Z,19.55
2022-08-12T00:03:37.795Z,19.58
2022-08-12T00:06:27.632Z,19.47
2022-08-12T00:09:25.763Z,19.41
2022-08-12T00:12:13.154Z,19.39
2022-08-12T00:15:02.580Z,19.38
2022-08-12T00:17:52.065Z,19.36
2022-08-12T00:20:39.388Z,19.34
2022-08-12T00:23:27.009Z,19.34
2022-08-12T00:26:23.294Z,19.32
2022-08-12T00:29:03.223Z,19.27
2022-08-12T00:31:52.529Z,19.19
2022-08-12T00:34:39.771Z,19.18
2022-08-12T00:37:27.767Z,19.20
2022-08-12T00:40:16.811Z,19.19
2022-08-12T00:42:47.438Z,19.19
2022-08-12T00:45:21.252Z,19.15
2022-08-12T00:47:54.387Z,19.11
2022-08-12T00:50:24.463Z,19.05
2022-08-12T00:52:54.175Z,18.94
2022-08-12T00:55:24.986Z,18.93
2022-08-12T00:57:54.299Z,18.91
2022-08-12T01:00:30.205Z,18.95
2022-08-12T01:03:00.310Z,18.95
2022-08-12T01:05:54.132Z,18.95
2022-08-12T01:08:32.794Z,18.91
2022-08-12T01:11:25.407Z,18.86
2022-08-12T01:13:54.838Z,18.77
2022-08-12T01:16:25.013Z,18.73
2022-08-12T01:18:58.428Z,18.66
2022-08-12T01:22:04.396Z,18.63
2022-08-12T01:24:44.115Z,18.68
2022-08-12T01:27:15.062Z,18.77
2022-08-12T01:29:48.185Z,18.83
2022-08-12T01:32:17.697Z,18.85
2022-08-12T01:34:52.618Z,18.91
2022-08-12T01:37:24.075Z,18.89
2022-08-12T01:40:33.932Z,18.89
2022-08-12T01:42:31.323Z,18.86
2022-08-12T01:45:01.568Z,18.85
2022-08-12T01:47:43.177Z,18.89
2022-08-12T01:50:38.054Z,18.89
2022-08-12T01:53:13.338Z,18.88
2022-08-12T01:55:46.571Z,18.86
2022-08-12T01:58:24.881Z,18.88
2022-08-12T02:01:04.785Z,18.82
2022-08-12T02:04:12.911Z,18.68
2022-08-12T02:07:21.631Z,18.72
2022-08-12T02:10:51.343Z,18.66
2022-08-12T02:13:01.671Z,18.66
2022-08-12T02:15:57.619Z,18.62
2022-08-12T02:18:45.049Z,18.60
2022-08-12T02:21:38.399Z,18.58
2022-08-12T02:24:13.185Z,18.62
2022-08-12T02:26:45.809Z,18.58
2022-08-12T02:29:17.971Z,18.53
2022-08-12T02:31:52.986Z,18.49
2022-08-12T02:34:24.590Z,18.42
2022-08-12T02:36:57.566Z,18.35
2022-08-12T02:39:31.345Z,18.34
2022-08-12T02:42:03.709Z,18.31
2022-08-12T02:44:38.401Z,18.30
2022-08-12T02:47:55.890Z,18.31
2022-08-12T02:49:54.343Z,18.30
2022-08-12T02:52:26.741Z,18.23
2022-08-12T02:55:01.491Z,18.21
2022-08-12T02:57:32.450Z,18.17
2022-08-12T03:00:03.432Z,18.16
2022-08-12T03:02:33.021Z,18.16
2022-08-12T03:05:06.913Z,18.11
2022-08-12T03:07:59.493Z,18.09
2022-08-12T03:10:20.678Z,18.07
2022-08-12T03:12:53.815Z,18.07
2022-08-12T03:15:24.630Z,18.03
2022-08-12T03:18:24.824Z,17.98
2022-08-12T03:20:55.099Z,17.99
2022-08-12T03:23:31.008Z,18.00
2022-08-12T03:26:03.640Z,18.02
2022-08-12T03:28:52.672Z,17.99
2022-08-12T03:31:33.771Z,17.95
2022-08-12T03:34:08.842Z,17.94
2022-08-12T03:36:40.186Z,17.90
2022-08-12T03:39:19.274Z,17.86
2022-08-12T03:42:14.708Z,17.84
2022-08-12T03:45:18.924Z,17.78
2022-08-12T03:48:18.937Z,17.77
2022-08-12T03:51:08.211Z,17.73
2022-08-12T03:53:58.313Z,17.72
2022-08-12T03:56:48.010Z,17.70
2022-08-12T03:59:35.127Z,17.65
2022-08-12T04:02:05.315Z,17.67
2022-08-12T04:04:35.925Z,17.60
2022-08-12T04:07:09.854Z,17.57
2022-08-12T04:09:46.155Z,17.52
2022-08-12T04:12:35.565Z,17.48
2022-08-12T04:15:06.110Z,17.50
2022-08-12T04:17:36.228Z,17.50
2022-08-12T04:20:08.002Z,17.50
2022-08-12T04:22:37.325Z,17.48
2022-08-12T04:25:09.003Z,17.43
2022-08-12T04:27:40.196Z,17.43
2022-08-12T04:30:21.291Z,17.44
2022-08-12T04:32:44.860Z,17.44
2022-08-12T04:35:16.046Z,17.43
2022-08-12T04:37:58.953Z,17.42
2022-08-12T04:40:28.037Z,17.39
2022-08-12T04:43:00.443Z,17.40
2022-08-12T04:45:32.579Z,17.43
2022-08-12T04:48:02.768Z,17.45
2022-08-12T04:50:35.872Z,17.52
2022-08-12T04:53:05.510Z,17.58
2022-08-12T04:55:35.303Z,17.65
2022-08-12T04:58:04.660Z,17.65
2022-08-12T05:00:35.115Z,17.67
2022-08-12T05:03:06.514Z,17.65
2022-08-12T05:05:37.097Z,17.72
2022-08-12T05:08:08.489Z,17.77
2022-08-12T05:10:37.729Z,17.85
2022-08-12T05:13:09.130Z,17.97
2022-08-12T05:16:02.598Z,18.13
2022-08-12T05:18:19.268Z,18.21
2022-08-12T05:20:42.800Z,18.28
2022-08-12T05:23:14.995Z,18.36
2022-08-12T05:25:45.713Z,18.39
2022-08-12T05:28:17.632Z,18.44
2022-08-12T05:30:48.145Z,18.46
2022-08-12T05:33:17.568Z,18.52
2022-08-12T05:35:49.565Z,18.64
2022-08-12T05:38:38.109Z,18.74
2022-08-12T05:41:13.374Z,18.81
2022-08-12T05:43:42.687Z,18.96
2022-08-12T05:46:13.663Z,19.19
2022-08-12T05:48:43.735Z,19.76
2022-08-12T05:51:13.059Z,21.29
2022-08-12T05:53:43.223Z,22.67
2022-08-12T05:56:30.557Z,23.79
2022-08-12T05:59:01.833Z,23.89
2022-08-12T06:02:12.621Z,23.30
2022-08-12T06:04:02.747Z,22.87
2022-08-12T06:06:39.588Z,22.12
2022-08-12T06:09:09.638Z,21.56
2022-08-12T06:12:05.089Z,21.25
2022-08-12T06:14:14.719Z,21.06
2022-08-12T06:16:46.382Z,20.98
2022-08-12T06:19:16.153Z,20.96
2022-08-12T06:21:47.206Z,21.01
2022-08-12T06:24:19.064Z,21.20
2022-08-12T06:26:48.343Z,21.22
2022-08-12T06:30:07.449Z,21.47
2022-08-12T06:31:53.524Z,21.51
2022-08-12T06:35:26.534Z,21.96
2022-08-12T06:36:55.401Z,21.99
2022-08-12T06:39:25.078Z,21.70
2022-08-12T06:42:33.114Z,21.56
2022-08-12T06:44:43.137Z,21.69
2022-08-12T06:47:14.057Z,21.88
2022-08-12T06:49:44.296Z,21.93
2022-08-12T06:52:13.579Z,21.98
2022-08-12T06:54:44.506Z,22.04
2022-08-12T06:58:08.089Z,22.09
2022-08-12T06:59:44.856Z,22.15
2022-08-12T07:02:14.111Z,22.13
2022-08-12T07:04:43.485Z,22.29
2022-08-12T07:07:12.703Z,22.29
2022-08-12T07:10:05.372Z,22.34
2022-08-12T07:12:15.698Z,22.40
2022-08-12T07:14:48.484Z,22.48
2022-08-12T07:17:16.110Z,22.66
2022-08-12T07:19:46.903Z,22.77
2022-08-12T07:22:18.758Z,22.78
2022-08-12T07:24:49.884Z,22.84
2022-08-12T07:27:19.129Z,22.93
2022-08-12T07:29:58.160Z,23.03
2022-08-12T07:32:21.934Z,23.06
2022-08-12T07:34:51.315Z,23.18
2022-08-12T07:37:20.613Z,23.29
2022-08-12T07:39:59.251Z,23.35
2022-08-12T07:42:21.515Z,23.48
2022-08-12T07:44:51.908Z,23.46
2022-08-12T07:47:21.354Z,23.56
2022-08-12T07:50:04.936Z,23.62
2022-08-12T07:52:21.869Z,23.80
2022-08-12T07:54:51.148Z,23.88
2022-08-12T07:57:20.725Z,23.98
2022-08-12T07:59:50.188Z,24.06
2022-08-12T08:02:21.138Z,24.25
2022-08-12T08:04:58.493Z,24.34
2022-08-12T08:07:30.702Z,24.47
2022-08-12T08:10:00.802Z,24.49
2022-08-12T08:12:48.561Z,24.65
2022-08-12T08:15:20.251Z,24.84
2022-08-12T08:18:02.365Z,24.83
2022-08-12T08:20:34.006Z,25.01
2022-08-12T08:23:08.924Z,25.06
2022-08-12T08:25:39.627Z,25.07
2022-08-12T08:28:12.215Z,25.21
2022-08-12T08:30:44.396Z,25.38
2022-08-12T08:33:24.409Z,25.48
2022-08-12T08:35:47.765Z,25.54
2022-08-12T08:38:23.514Z,25.54
2022-08-12T08:41:07.945Z,25.70
2022-08-12T08:43:44.034Z,25.92
2022-08-12T08:46:08.219Z,26.04
2022-08-12T08:48:37.553Z,26.27
2022-08-12T08:51:07.040Z,26.27
2022-08-12T08:53:36.575Z,26.45
2022-08-12T08:56:06.443Z,26.65
2022-08-12T08:58:35.811Z,26.65
2022-08-12T09:01:05.910Z,26.78
2022-08-12T09:05:08.301Z,26.86
2022-08-12T09:06:06.773Z,27.07
2022-08-12T09:08:36.270Z,27.21
2022-08-12T09:11:07.247Z,27.24
2022-08-12T09:14:12.476Z,27.38
2022-08-12T09:16:09.426Z,27.60
2022-08-12T09:18:41.271Z,27.53
2022-08-12T09:21:11.309Z,27.75
2022-08-12T09:23:58.522Z,27.81
2022-08-12T09:26:12.319Z,27.99
2022-08-12T09:28:42.860Z,28.24
2022-08-12T09:32:03.585Z,28.36
2022-08-12T09:34:29.834Z,28.59
2022-08-12T09:36:15.642Z,28.78
2022-08-12T09:38:58.814Z,28.95
2022-08-12T09:42:08.603Z,29.12
2022-08-12T09:44:06.941Z,29.50
2022-08-12T09:46:37.717Z,29.72
2022-08-12T09:49:13.488Z,30.17
2022-08-12T09:51:43.974Z,30.95
2022-08-12T09:54:34.326Z,33.20
2022-08-12T09:57:01.131Z,35.13
2022-08-12T10:00:16.083Z,36.49
2022-08-12T10:02:42.616Z,37.15
2022-08-12T10:04:20.864Z,37.17
2022-08-12T10:06:55.615Z,38.12
2022-08-12T10:09:21.350Z,38.68
2022-08-12T10:12:12.978Z,37.70
2022-08-12T10:14:50.200Z,38.46
2022-08-12T10:17:14.486Z,38.53
2022-08-12T10:19:51.923Z,39.89
2022-08-12T10:22:17.294Z,38.89
2022-08-12T10:24:53.239Z,39.08
2022-08-12T10:28:00.805Z,40.32
2022-08-12T10:30:39.744Z,40.14
2022-08-12T10:32:44.686Z,39.64
2022-08-12T10:35:10.913Z,40.19
2022-08-12T10:38:35.506Z,39.84
2022-08-12T10:40:19.224Z,40.29
2022-08-12T10:43:01.131Z,39.74
2022-08-12T10:45:31.276Z,39.84
2022-08-12T10:48:19.521Z,39.37
2022-08-12T10:50:58.558Z,39.21
2022-08-12T10:53:05.826Z,39.37
2022-08-12T10:55:36.836Z,39.86
2022-08-12T10:58:15.244Z,39.20
2022-08-12T11:00:55.554Z,39.90
2022-08-12T11:04:23.738Z,39.43
2022-08-12T11:07:09.189Z,39.52
2022-08-12T11:08:34.896Z,40.39
2022-08-12T11:10:45.774Z,39.95
2022-08-12T11:13:15.095Z,39.72
2022-08-12T11:16:19.018Z,40.98
2022-08-12T11:18:18.386Z,40.59
2022-08-12T11:20:48.407Z,40.76
2022-08-12T11:23:24.917Z,39.80
2022-08-12T11:25:57.628Z,38.25
2022-08-12T11:28:34.870Z,39.30
2022-08-12T11:30:53.635Z,38.77
2022-08-12T11:33:23.961Z,37.51
2022-08-12T11:35:59.163Z,38.37
2022-08-12T11:38:24.881Z,39.48
2022-08-12T11:40:56.035Z,39.96
2022-08-12T11:43:27.272Z,38.99
2022-08-12T11:45:58.434Z,38.97
2022-08-12T11:48:27.784Z,39.33
2022-08-12T11:50:58.753Z,39.76
2022-08-12T11:53:58.130Z,40.17
2022-08-12T11:55:58.450Z,39.50
2022-08-12T11:59:18.842Z,39.61
2022-08-12T12:03:44.194Z,40.09
2022-08-12T12:06:00.457Z,39.99
2022-08-12T12:08:38.743Z,39.84
2022-08-12T12:11:02.412Z,39.58
2022-08-12T12:14:07.415Z,39.93
2022-08-12T12:16:05.946Z,39.32
2022-08-12T12:18:36.319Z,39.30
2022-08-12T12:21:08.322Z,39.29
2022-08-12T12:23:37.805Z,40.19
2022-08-12T12:26:09.902Z,40.29
2022-08-12T12:28:39.761Z,39.29
2022-08-12T12:31:14.560Z,38.84
2022-08-12T12:33:57.295Z,39.09
2022-08-12T12:36:20.574Z,38.98
2022-08-12T12:38:43.036Z,39.40
2022-08-12T12:41:16.512Z,38.93
2022-08-12T12:43:47.561Z,39.02
2022-08-12T12:46:16.132Z,37.76
2022-08-12T12:48:45.532Z,37.96
2022-08-12T12:51:48.465Z,38.23
2022-08-12T12:54:06.710Z,38.44
2022-08-12T12:56:33.994Z,37.44
2022-08-12T12:58:56.486Z,37.49
2022-08-12T13:01:30.075Z,37.82
2022-08-12T13:04:02.267Z,37.91
2022-08-12T13:06:32.023Z,37.87
2022-08-12T13:09:03.814Z,38.10
2022-08-12T13:11:41.561Z,37.40
2022-08-12T13:14:09.844Z,38.25
2022-08-12T13:16:36.577Z,38.12
2022-08-12T13:19:07.841Z,37.60
2022-08-12T13:21:42.874Z,37.25
2022-08-12T13:24:10.796Z,36.60
2022-08-12T13:26:40.812Z,36.93
2022-08-12T13:29:11.611Z,36.60
2022-08-12T13:31:46.326Z,36.84
2022-08-12T13:34:33.985Z,36.88
2022-08-12T13:36:47.491Z,36.36
2022-08-12T13:39:16.866Z,35.73
2022-08-12T13:41:46.697Z,35.60
2022-08-12T13:44:19.608Z,35.63
2022-08-12T13:46:58.642Z,35.25
2022-08-12T13:49:54.160Z,35.31
2022-08-12T13:51:52.755Z,35.70
2022-08-12T13:54:23.601Z,35.62
2022-08-12T13:56:53.004Z,35.56
2022-08-12T13:59:24.520Z,35.27
2022-08-12T14:01:56.861Z,35.21
2022-08-12T14:04:25.572Z,35.48
2022-08-12T14:06:58.304Z,35.23
2022-08-12T14:09:29.756Z,35.10
2022-08-12T14:12:00.009Z,34.82
2022-08-12T14:14:31.448Z,34.82
2022-08-12T14:17:02.364Z,35.05
2022-08-12T14:19:38.083Z,34.59
2022-08-12T14:22:05.494Z,34.74
2022-08-12T14:24:40.441Z,34.58
2022-08-12T14:27:11.083Z,34.92
2022-08-12T14:30:04.463Z,34.71
2022-08-12T14:32:16.797Z,34.68
2022-08-12T14:34:44.589Z,34.50
2022-08-12T14:37:55.324Z,34.42
2022-08-12T14:39:50.511Z,34.63
2022-08-12T14:42:16.246Z,34.32
2022-08-12T14:44:57.704Z,34.21
2022-08-12T14:47:17.209Z,33.92
2022-08-12T14:50:34.081Z,33.97
2022-08-12T14:53:13.572Z,34.15
2022-08-12T14:57:23.956Z,33.94
2022-08-12T15:00:10.315Z,33.41
2022-08-12T15:02:39.942Z,33.40
2022-08-12T15:05:09.549Z,33.40
2022-08-12T15:07:50.128Z,33.34
2022-08-12T15:10:10.747Z,33.19
2022-08-12T15:12:40.524Z,33.08
2022-08-12T15:15:11.303Z,33.19
2022-08-12T15:17:40.941Z,32.93
2022-08-12T15:20:31.701Z,33.07
2022-08-12T15:22:53.808Z,32.99
2022-08-12T15:25:17.490Z,33.06
2022-08-12T15:28:20.376Z,33.03
2022-08-12T15:30:16.248Z,33.35
2022-08-12T15:32:48.729Z,33.58
2022-08-12T15:35:17.403Z,33.38
2022-08-12T15:38:11.138Z,33.04
2022-08-12T15:40:30.390Z,32.82
2022-08-12T15:42:51.004Z,32.86
2022-08-12T15:45:23.925Z,32.97
2022-08-12T15:48:16.105Z,32.63
2022-08-12T15:50:27.161Z,32.70
2022-08-12T15:52:57.715Z,32.50
2022-08-12T15:55:31.317Z,32.68
2022-08-12T15:58:01.730Z,32.47
2022-08-12T16:00:38.926Z,32.34
2022-08-12T16:03:13.491Z,32.58
2022-08-12T16:06:11.187Z,32.38
2022-08-12T16:08:21.234Z,32.30
2022-08-12T16:10:44.897Z,32.26
2022-08-12T16:13:32.660Z,32.06
2022-08-12T16:16:01.828Z,31.98
2022-08-12T16:18:21.914Z,31.84
2022-08-12T16:20:52.535Z,31.95
2022-08-12T16:23:36.217Z,32.11
2022-08-12T16:26:05.203Z,32.08
2022-08-12T16:28:28.313Z,32.18
2022-08-12T16:30:57.504Z,32.18
2022-08-12T16:33:59.612Z,32.12
2022-08-12T16:36:18.937Z,32.18
2022-08-12T16:38:46.297Z,31.87
2022-08-12T16:41:15.553Z,31.98
2022-08-12T16:43:46.862Z,32.08
2022-08-12T16:46:31.005Z,32.34
2022-08-12T16:48:47.599Z,32.26
2022-08-12T16:51:17.803Z,32.50
2022-08-12T16:53:49.093Z,32.24
2022-08-12T16:56:18.323Z,32.23
2022-08-12T16:58:48.026Z,32.25
2022-08-12T17:01:19.834Z,32.19
2022-08-12T17:04:09.724Z,31.97
2022-08-12T17:06:47.960Z,31.94
2022-08-12T17:09:18.409Z,32.01
2022-08-12T17:11:49.992Z,32.05
2022-08-12T17:14:23.346Z,31.92
2022-08-12T17:16:55.407Z,31.97
2022-08-12T17:20:29.422Z,31.94
2022-08-12T17:22:02.104Z,31.70
2022-08-12T17:24:30.525Z,31.70
2022-08-12T17:27:09.604Z,31.60
2022-08-12T17:30:03.799Z,31.46
2022-08-12T17:32:11.150Z,31.43
2022-08-12T17:34:58.892Z,31.25
2022-08-12T17:37:29.436Z,31.11
2022-08-12T17:40:06.736Z,30.90
2022-08-12T17:42:32.890Z,30.79
2022-08-12T17:45:01.910Z,30.59
2022-08-12T17:47:36.253Z,30.62
2022-08-12T17:50:08.535Z,30.53
2022-08-12T17:52:40.469Z,30.37
2022-08-12T17:55:44.344Z,30.28
2022-08-12T17:57:43.172Z,30.22
2022-08-12T18:00:14.177Z,30.18
2022-08-12T18:02:43.758Z,30.05
2022-08-12T18:05:13.645Z,29.96
2022-08-12T18:07:46.053Z,29.87
2022-08-12T18:10:22.388Z,29.82
2022-08-12T18:12:53.871Z,29.69
2022-08-12T18:15:26.792Z,29.57
2022-08-12T18:18:00.131Z,29.43
2022-08-12T18:20:27.146Z,29.34
2022-08-12T18:23:01.781Z,29.23
2022-08-12T18:26:14.459Z,29.18
2022-08-12T18:28:29.057Z,29.07
2022-08-12T18:30:54.648Z,29.00
2022-08-12T18:33:25.817Z,28.88
2022-08-12T18:35:56.940Z,28.74
2022-08-12T18:38:27.683Z,28.66
2022-08-12T18:41:21.140Z,28.55
2022-08-12T18:43:59.488Z,28.41
2022-08-12T18:46:18.601Z,28.18
2022-08-12T18:48:52.503Z,27.98
2022-08-12T18:51:34.110Z,27.76
2022-08-12T18:54:06.649Z,27.65
2022-08-12T18:56:33.551Z,27.52
2022-08-12T18:59:00.513Z,27.35
2022-08-12T19:02:19.656Z,27.22
2022-08-12T19:04:07.293Z,27.09
2022-08-12T19:06:38.306Z,26.93
2022-08-12T19:09:10.283Z,26.78
2022-08-12T19:11:58.202Z,26.67
2022-08-12T19:14:32.295Z,26.59
2022-08-12T19:17:05.154Z,26.49
2022-08-12T19:19:42.006Z,26.34
2022-08-12T19:22:08.341Z,26.23
2022-08-12T19:24:55.612Z,26.11
2022-08-12T19:27:25.155Z,25.99
2022-08-12T19:30:06.578Z,25.92
2022-08-12T19:32:31.356Z,25.90
2022-08-12T19:38:02.771Z,25.86
2022-08-12T19:40:09.444Z,25.78
2022-08-12T19:42:42.800Z,25.64
2022-08-12T19:45:12.234Z,25.51
2022-08-12T19:47:43.125Z,25.40
2022-08-12T19:50:12.588Z,25.31
2022-08-12T19:52:43.708Z,25.21
2022-08-12T19:55:19.864Z,25.16
2022-08-12T19:58:02.273Z,25.11
2022-08-12T20:00:17.304Z,24.98
2022-08-12T20:02:48.469Z,24.81
2022-08-12T20:06:03.301Z,24.69
2022-08-12T20:07:57.153Z,24.64
2022-08-12T20:10:22.188Z,24.54
2022-08-12T20:13:17.392Z,24.40
2022-08-12T20:15:26.123Z,24.28
2022-08-12T20:17:57.253Z,24.17
2022-08-12T20:20:28.443Z,24.05
2022-08-12T20:22:58.086Z,23.93
2022-08-12T20:25:52.755Z,23.80
2022-08-12T20:28:05.315Z,23.70
2022-08-12T20:30:37.596Z,23.62
2022-08-12T20:33:05.604Z,23.56
2022-08-12T20:36:06.195Z,23.51
2022-08-12T20:38:07.142Z,23.44
2022-08-12T20:40:38.220Z,23.40
2022-08-12T20:43:08.704Z,23.37
2022-08-12T20:45:44.901Z,23.31
2022-08-12T20:48:10.884Z,23.24
2022-08-12T20:50:53.457Z,23.21
2022-08-12T20:53:18.585Z,23.15
2022-08-12T20:55:56.993Z,23.07
2022-08-12T20:58:19.298Z,22.97
2022-08-12T21:00:50.203Z,22.91
2022-08-12T21:03:38.139Z,22.84
2022-08-12T21:06:27.196Z,22.80
2022-08-12T21:09:00.066Z,22.75
2022-08-12T21:11:30.481Z,22.60
2022-08-12T21:13:59.925Z,22.48
2022-08-12T21:16:35.873Z,22.30
2022-08-12T21:19:08.109Z,22.25
2022-08-12T21:21:40.313Z,22.13
2022-08-12T21:24:08.686Z,21.94
2022-08-12T21:26:39.999Z,21.55
2022-08-12T21:29:11.904Z,21.63
2022-08-12T21:32:39.490Z,21.55
2022-08-12T21:34:19.571Z,21.47
2022-08-12T21:36:52.255Z,21.39
2022-08-12T21:39:35.833Z,21.34
2022-08-12T21:42:02.453Z,21.30
2022-08-12T21:45:44.040Z,21.15
2022-08-12T21:47:20.275Z,21.10
2022-08-12T21:49:53.458Z,20.98
2022-08-12T21:52:12.462Z,20.84
2022-08-12T21:54:43.921Z,20.75
2022-08-12T21:57:16.741Z,20.63
2022-08-12T21:59:48.356Z,20.51
2022-08-12T22:02:37.182Z,20.35
2022-08-12T22:05:24.719Z,20.31
2022-08-12T22:07:58.351Z,20.28
2022-08-12T22:10:28.404Z,20.21
2022-08-12T22:12:58.517Z,20.20
2022-08-12T22:15:29.657Z,20.17
2022-08-12T22:18:01.351Z,20.13
2022-08-12T22:20:31.573Z,20.07
2022-08-12T22:23:02.419Z,20.07
2022-08-12T22:25:32.118Z,20.01
2022-08-12T22:28:24.590Z,20.16
2022-08-12T22:31:08.536Z,20.20
2022-08-12T22:33:53.980Z,20.33
2022-08-12T22:36:16.848Z,20.22
2022-08-12T22:38:46.304Z,20.16
2022-08-12T22:41:30.757Z,20.15
2022-08-12T22:44:19.463Z,20.17
2022-08-12T22:46:54.363Z,20.12
2022-08-12T22:49:36.527Z,20.18
2022-08-12T22:52:03.013Z,20.25
2022-08-12T22:54:35.536Z,20.20
2022-08-12T22:57:02.721Z,20.19
2022-08-12T22:59:49.627Z,20.22
2022-08-12T23:02:03.790Z,20.30
2022-08-12T23:04:34.602Z,20.32
2022-08-12T23:07:07.412Z,20.31
2022-08-12T23:09:48.505Z,20.32
2022-08-12T23:12:09.960Z,20.30
2022-08-12T23:14:41.008Z,20.30
2022-08-12T23:17:39.847Z,20.29
2022-08-12T23:19:45.884Z,20.32
2022-08-12T23:22:36.192Z,20.36
2022-08-12T23:24:56.405Z,20.34
2022-08-12T23:27:51.002Z,20.34
2022-08-12T23:30:18.773Z,20.41
2022-08-12T23:32:41.436Z,20.40
2022-08-12T23:35:18.528Z,20.36
2022-08-12T23:37:53.745Z,20.35
2022-08-12T23:40:22.530Z,20.28
2022-08-12T23:42:55.344Z,20.21
2022-08-12T23:45:31.080Z,20.19
2022-08-12T23:48:00.252Z,20.16
2022-08-12T23:50:33.474Z,20.17
2022-08-12T23:53:02.791Z,20.20
2022-08-12T23:55:38.271Z,20.18
2022-08-12T23:58:22.651Z,20.14
